sensor_id;sensor_type;location;lat;lon;timestamp;P1;durP1;ratioP1;P2;durP2;ratioP2
20657;SDS011;10488;50.846;4.078;2023-11-21T00:02:04;38.08;;;20.40;;
20657;SDS011;10488;50.846;4.078;2023-11-21T00:04:30;41.35;;;21.45;;
20657;SDS011;10488;50.846;4.078;2023-11-21T00:06:55;43.17;;;20.75;;
20657;SDS011;10488;50.846;4.078;2023-11-21T00:09:21;45.67;;;21.30;;
20657;SDS011;10488;50.846;4.078;2023-11-21T00:11:47;36.08;;;17.17;;
20657;SDS011;10488;50.846;4.078;2023-11-21T00:14:12;40.47;;;19.80;;
20657;SDS011;10488;50.846;4.078;2023-11-21T00:16:40;41.53;;;19.88;;
20657;SDS011;10488;50.846;4.078;2023-11-21T00:19:06;43.97;;;20.30;;
20657;SDS011;10488;50.846;4.078;2023-11-21T00:21:31;46.15;;;22.15;;
20657;SDS011;10488;50.846;4.078;2023-11-21T00:23:57;43.15;;;21.08;;
20657;SDS011;10488;50.846;4.078;2023-11-21T00:26:23;49.90;;;20.75;;
20657;SDS011;10488;50.846;4.078;2023-11-21T00:28:49;41.45;;;21.80;;
20657;SDS011;10488;50.846;4.078;2023-11-21T00:31:16;47.53;;;21.65;;
20657;SDS011;10488;50.846;4.078;2023-11-21T00:33:42;47.03;;;21.65;;
20657;SDS011;10488;50.846;4.078;2023-11-21T00:36:08;43.88;;;20.00;;
20657;SDS011;10488;50.846;4.078;2023-11-21T00:38:35;45.78;;;22.00;;
20657;SDS011;10488;50.846;4.078;2023-11-21T00:41:01;45.38;;;20.30;;
20657;SDS011;10488;50.846;4.078;2023-11-21T00:43:28;51.47;;;21.98;;
20657;SDS011;10488;50.846;4.078;2023-11-21T00:45:53;47.85;;;21.52;;
20657;SDS011;10488;50.846;4.078;2023-11-21T00:48:19;52.28;;;22.00;;
20657;SDS011;10488;50.846;4.078;2023-11-21T00:50:45;42.75;;;20.58;;
20657;SDS011;10488;50.846;4.078;2023-11-21T00:53:10;47.95;;;21.60;;
20657;SDS011;10488;50.846;4.078;2023-11-21T00:55:36;51.05;;;21.60;;
20657;SDS011;10488;50.846;4.078;2023-11-21T00:58:05;48.33;;;21.80;;
20657;SDS011;10488;50.846;4.078;2023-11-21T01:00:32;50.03;;;20.95;;
20657;SDS011;10488;50.846;4.078;2023-11-21T01:02:58;47.95;;;22.20;;
20657;SDS011;10488;50.846;4.078;2023-11-21T01:05:24;52.88;;;23.25;;
20657;SDS011;10488;50.846;4.078;2023-11-21T01:07:50;49.80;;;20.70;;
20657;SDS011;10488;50.846;4.078;2023-11-21T01:10:15;49.92;;;22.20;;
20657;SDS011;10488;50.846;4.078;2023-11-21T01:12:42;49.65;;;23.42;;
20657;SDS011;10488;50.846;4.078;2023-11-21T01:15:08;49.20;;;23.00;;
20657;SDS011;10488;50.846;4.078;2023-11-21T01:17:36;48.33;;;22.33;;
20657;SDS011;10488;50.846;4.078;2023-11-21T01:20:03;40.92;;;21.00;;
20657;SDS011;10488;50.846;4.078;2023-11-21T01:22:36;45.53;;;22.48;;
20657;SDS011;10488;50.846;4.078;2023-11-21T01:25:01;49.53;;;22.60;;
20657;SDS011;10488;50.846;4.078;2023-11-21T01:27:29;43.60;;;20.98;;
20657;SDS011;10488;50.846;4.078;2023-11-21T01:29:55;48.10;;;22.00;;
20657;SDS011;10488;50.846;4.078;2023-11-21T01:32:20;42.90;;;22.05;;
20657;SDS011;10488;50.846;4.078;2023-11-21T01:34:47;49.53;;;23.90;;
20657;SDS011;10488;50.846;4.078;2023-11-21T01:37:13;41.22;;;22.13;;
20657;SDS011;10488;50.846;4.078;2023-11-21T01:39:39;42.72;;;22.45;;
20657;SDS011;10488;50.846;4.078;2023-11-21T01:42:05;38.17;;;21.20;;
20657;SDS011;10488;50.846;4.078;2023-11-21T01:44:31;44.55;;;20.98;;
20657;SDS011;10488;50.846;4.078;2023-11-21T01:46:57;36.90;;;21.20;;
20657;SDS011;10488;50.846;4.078;2023-11-21T01:49:23;43.88;;;21.02;;
20657;SDS011;10488;50.846;4.078;2023-11-21T01:51:49;41.80;;;19.67;;
20657;SDS011;10488;50.846;4.078;2023-11-21T01:54:16;37.75;;;20.83;;
20657;SDS011;10488;50.846;4.078;2023-11-21T01:56:45;36.90;;;20.00;;
20657;SDS011;10488;50.846;4.078;2023-11-21T01:59:12;40.03;;;21.35;;
20657;SDS011;10488;50.846;4.078;2023-11-21T02:01:42;44.20;;;21.00;;
20657;SDS011;10488;50.846;4.078;2023-11-21T02:04:09;36.30;;;20.42;;
20657;SDS011;10488;50.846;4.078;2023-11-21T02:06:35;40.50;;;19.80;;
20657;SDS011;10488;50.846;4.078;2023-11-21T02:09:00;39.45;;;20.13;;
20657;SDS011;10488;50.846;4.078;2023-11-21T02:11:26;53.65;;;20.85;;
20657;SDS011;10488;50.846;4.078;2023-11-21T02:13:52;39.58;;;19.85;;
20657;SDS011;10488;50.846;4.078;2023-11-21T02:16:19;43.42;;;20.75;;
20657;SDS011;10488;50.846;4.078;2023-11-21T02:18:46;33.95;;;19.38;;
20657;SDS011;10488;50.846;4.078;2023-11-21T02:21:13;36.88;;;19.88;;
20657;SDS011;10488;50.846;4.078;2023-11-21T02:23:39;43.58;;;20.00;;
20657;SDS011;10488;50.846;4.078;2023-11-21T02:26:09;41.97;;;18.92;;
20657;SDS011;10488;50.846;4.078;2023-11-21T02:28:36;43.58;;;18.77;;
20657;SDS011;10488;50.846;4.078;2023-11-21T02:31:02;31.88;;;18.13;;
20657;SDS011;10488;50.846;4.078;2023-11-21T02:33:29;37.05;;;19.02;;
20657;SDS011;10488;50.846;4.078;2023-11-21T02:35:58;31.27;;;17.92;;
20657;SDS011;10488;50.846;4.078;2023-11-21T02:38:25;40.45;;;18.08;;
20657;SDS011;10488;50.846;4.078;2023-11-21T02:40:51;36.45;;;18.70;;
20657;SDS011;10488;50.846;4.078;2023-11-21T02:43:16;36.63;;;18.77;;
20657;SDS011;10488;50.846;4.078;2023-11-21T02:45:42;35.15;;;18.80;;
20657;SDS011;10488;50.846;4.078;2023-11-21T02:48:08;36.10;;;19.30;;
20657;SDS011;10488;50.846;4.078;2023-11-21T02:50:34;34.15;;;18.88;;
20657;SDS011;10488;50.846;4.078;2023-11-21T02:53:00;33.45;;;18.85;;
20657;SDS011;10488;50.846;4.078;2023-11-21T02:55:26;32.22;;;18.27;;
20657;SDS011;10488;50.846;4.078;2023-11-21T02:57:52;38.67;;;19.55;;
20657;SDS011;10488;50.846;4.078;2023-11-21T03:00:18;34.15;;;18.58;;
20657;SDS011;10488;50.846;4.078;2023-11-21T03:02:44;38.90;;;17.75;;
20657;SDS011;10488;50.846;4.078;2023-11-21T03:05:10;41.50;;;20.30;;
20657;SDS011;10488;50.846;4.078;2023-11-21T03:07:36;37.38;;;18.17;;
20657;SDS011;10488;50.846;4.078;2023-11-21T03:10:03;34.35;;;19.25;;
20657;SDS011;10488;50.846;4.078;2023-11-21T03:12:29;37.15;;;19.33;;
20657;SDS011;10488;50.846;4.078;2023-11-21T03:14:55;35.47;;;20.33;;
20657;SDS011;10488;50.846;4.078;2023-11-21T03:17:21;38.58;;;19.42;;
20657;SDS011;10488;50.846;4.078;2023-11-21T03:19:46;37.17;;;19.52;;
20657;SDS011;10488;50.846;4.078;2023-11-21T03:22:12;35.97;;;19.05;;
20657;SDS011;10488;50.846;4.078;2023-11-21T03:24:38;43.33;;;20.80;;
20657;SDS011;10488;50.846;4.078;2023-11-21T03:27:04;39.25;;;19.33;;
20657;SDS011;10488;50.846;4.078;2023-11-21T03:29:30;32.47;;;18.85;;
20657;SDS011;10488;50.846;4.078;2023-11-21T03:31:55;35.60;;;19.63;;
20657;SDS011;10488;50.846;4.078;2023-11-21T03:34:25;41.03;;;19.60;;
20657;SDS011;10488;50.846;4.078;2023-11-21T03:36:52;38.47;;;20.45;;
20657;SDS011;10488;50.846;4.078;2023-11-21T03:39:19;35.95;;;18.65;;
20657;SDS011;10488;50.846;4.078;2023-11-21T03:41:45;38.65;;;20.65;;
20657;SDS011;10488;50.846;4.078;2023-11-21T03:44:11;41.80;;;21.92;;
20657;SDS011;10488;50.846;4.078;2023-11-21T03:46:36;37.22;;;20.35;;
20657;SDS011;10488;50.846;4.078;2023-11-21T03:49:02;38.97;;;21.27;;
20657;SDS011;10488;50.846;4.078;2023-11-21T03:51:27;33.42;;;20.23;;
20657;SDS011;10488;50.846;4.078;2023-11-21T03:53:53;37.40;;;21.75;;
20657;SDS011;10488;50.846;4.078;2023-11-21T03:56:19;39.75;;;22.15;;
20657;SDS011;10488;50.846;4.078;2023-11-21T03:58:48;35.80;;;19.75;;
20657;SDS011;10488;50.846;4.078;2023-11-21T04:01:23;35.85;;;20.45;;
20657;SDS011;10488;50.846;4.078;2023-11-21T04:03:50;32.40;;;19.15;;
20657;SDS011;10488;50.846;4.078;2023-11-21T04:06:16;38.80;;;20.58;;
20657;SDS011;10488;50.846;4.078;2023-11-21T04:08:43;39.78;;;21.42;;
20657;SDS011;10488;50.846;4.078;2023-11-21T04:11:09;43.45;;;21.17;;
20657;SDS011;10488;50.846;4.078;2023-11-21T04:13:37;39.17;;;20.83;;
20657;SDS011;10488;50.846;4.078;2023-11-21T04:16:07;32.78;;;20.05;;
20657;SDS011;10488;50.846;4.078;2023-11-21T04:18:35;40.08;;;20.67;;
20657;SDS011;10488;50.846;4.078;2023-11-21T04:21:01;37.80;;;19.92;;
20657;SDS011;10488;50.846;4.078;2023-11-21T04:23:28;37.92;;;19.70;;
20657;SDS011;10488;50.846;4.078;2023-11-21T04:25:55;38.95;;;19.92;;
20657;SDS011;10488;50.846;4.078;2023-11-21T04:28:22;39.15;;;19.80;;
20657;SDS011;10488;50.846;4.078;2023-11-21T04:30:49;35.28;;;20.02;;
20657;SDS011;10488;50.846;4.078;2023-11-21T04:33:15;36.50;;;19.92;;
20657;SDS011;10488;50.846;4.078;2023-11-21T04:35:41;31.85;;;18.02;;
20657;SDS011;10488;50.846;4.078;2023-11-21T04:38:07;35.67;;;19.70;;
20657;SDS011;10488;50.846;4.078;2023-11-21T04:40:32;38.58;;;19.50;;
20657;SDS011;10488;50.846;4.078;2023-11-21T04:42:58;37.53;;;19.35;;
20657;SDS011;10488;50.846;4.078;2023-11-21T04:45:24;35.13;;;18.63;;
20657;SDS011;10488;50.846;4.078;2023-11-21T04:47:50;36.92;;;20.17;;
20657;SDS011;10488;50.846;4.078;2023-11-21T04:50:16;42.70;;;20.02;;
20657;SDS011;10488;50.846;4.078;2023-11-21T04:52:42;35.22;;;19.88;;
20657;SDS011;10488;50.846;4.078;2023-11-21T04:55:08;37.80;;;20.90;;
20657;SDS011;10488;50.846;4.078;2023-11-21T04:57:35;36.30;;;20.25;;
20657;SDS011;10488;50.846;4.078;2023-11-21T05:00:01;35.50;;;19.55;;
20657;SDS011;10488;50.846;4.078;2023-11-21T05:02:30;39.85;;;20.70;;
20657;SDS011;10488;50.846;4.078;2023-11-21T05:05:00;37.72;;;20.27;;
20657;SDS011;10488;50.846;4.078;2023-11-21T05:07:26;37.85;;;18.80;;
20657;SDS011;10488;50.846;4.078;2023-11-21T05:09:55;35.75;;;19.92;;
20657;SDS011;10488;50.846;4.078;2023-11-21T05:12:24;35.00;;;18.63;;
20657;SDS011;10488;50.846;4.078;2023-11-21T05:14:50;39.33;;;19.40;;
20657;SDS011;10488;50.846;4.078;2023-11-21T05:17:16;36.17;;;18.90;;
20657;SDS011;10488;50.846;4.078;2023-11-21T05:19:42;33.80;;;19.38;;
20657;SDS011;10488;50.846;4.078;2023-11-21T05:22:08;37.05;;;19.35;;
20657;SDS011;10488;50.846;4.078;2023-11-21T05:24:33;38.80;;;20.05;;
20657;SDS011;10488;50.846;4.078;2023-11-21T05:27:00;28.67;;;17.63;;
20657;SDS011;10488;50.846;4.078;2023-11-21T05:29:25;32.83;;;17.70;;
20657;SDS011;10488;50.846;4.078;2023-11-21T05:31:52;31.10;;;19.10;;
20657;SDS011;10488;50.846;4.078;2023-11-21T05:34:18;35.08;;;19.23;;
20657;SDS011;10488;50.846;4.078;2023-11-21T05:36:45;38.85;;;20.08;;
20657;SDS011;10488;50.846;4.078;2023-11-21T05:39:11;37.03;;;19.27;;
20657;SDS011;10488;50.846;4.078;2023-11-21T05:41:37;31.08;;;18.52;;
20657;SDS011;10488;50.846;4.078;2023-11-21T05:44:02;34.10;;;20.40;;
20657;SDS011;10488;50.846;4.078;2023-11-21T05:46:28;36.40;;;20.52;;
20657;SDS011;10488;50.846;4.078;2023-11-21T05:48:54;34.53;;;18.70;;
20657;SDS011;10488;50.846;4.078;2023-11-21T05:51:20;37.15;;;19.05;;
20657;SDS011;10488;50.846;4.078;2023-11-21T05:53:45;37.72;;;19.15;;
20657;SDS011;10488;50.846;4.078;2023-11-21T05:56:11;37.63;;;19.95;;
20657;SDS011;10488;50.846;4.078;2023-11-21T05:58:38;39.88;;;19.85;;
20657;SDS011;10488;50.846;4.078;2023-11-21T06:01:05;34.55;;;19.77;;
20657;SDS011;10488;50.846;4.078;2023-11-21T06:03:34;38.67;;;19.52;;
20657;SDS011;10488;50.846;4.078;2023-11-21T06:06:00;33.33;;;18.80;;
20657;SDS011;10488;50.846;4.078;2023-11-21T06:08:25;34.60;;;18.77;;
20657;SDS011;10488;50.846;4.078;2023-11-21T06:10:51;33.63;;;19.25;;
20657;SDS011;10488;50.846;4.078;2023-11-21T06:13:17;35.05;;;19.38;;
20657;SDS011;10488;50.846;4.078;2023-11-21T06:15:49;34.15;;;19.70;;
20657;SDS011;10488;50.846;4.078;2023-11-21T06:18:15;35.60;;;21.13;;
20657;SDS011;10488;50.846;4.078;2023-11-21T06:20:41;33.03;;;19.40;;
20657;SDS011;10488;50.846;4.078;2023-11-21T06:23:06;39.63;;;20.25;;
20657;SDS011;10488;50.846;4.078;2023-11-21T06:25:32;32.47;;;19.70;;
20657;SDS011;10488;50.846;4.078;2023-11-21T06:28:01;29.65;;;18.92;;
20657;SDS011;10488;50.846;4.078;2023-11-21T06:30:27;37.30;;;19.25;;
20657;SDS011;10488;50.846;4.078;2023-11-21T06:32:54;36.00;;;19.20;;
20657;SDS011;10488;50.846;4.078;2023-11-21T06:35:20;35.88;;;19.05;;
20657;SDS011;10488;50.846;4.078;2023-11-21T06:37:46;36.90;;;19.48;;
20657;SDS011;10488;50.846;4.078;2023-11-21T06:40:14;41.97;;;20.10;;
20657;SDS011;10488;50.846;4.078;2023-11-21T06:42:40;32.97;;;18.42;;
20657;SDS011;10488;50.846;4.078;2023-11-21T06:45:06;31.00;;;18.25;;
20657;SDS011;10488;50.846;4.078;2023-11-21T06:47:32;36.47;;;19.58;;
20657;SDS011;10488;50.846;4.078;2023-11-21T06:49:58;38.25;;;19.88;;
20657;SDS011;10488;50.846;4.078;2023-11-21T06:52:25;31.70;;;17.50;;
20657;SDS011;10488;50.846;4.078;2023-11-21T06:54:50;39.25;;;18.17;;
20657;SDS011;10488;50.846;4.078;2023-11-21T06:57:16;40.08;;;20.45;;
20657;SDS011;10488;50.846;4.078;2023-11-21T06:59:42;32.55;;;18.58;;
20657;SDS011;10488;50.846;4.078;2023-11-21T07:02:08;36.67;;;20.08;;
20657;SDS011;10488;50.846;4.078;2023-11-21T07:04:34;36.22;;;20.00;;
20657;SDS011;10488;50.846;4.078;2023-11-21T07:07:01;32.90;;;20.77;;
20657;SDS011;10488;50.846;4.078;2023-11-21T07:09:28;38.67;;;19.52;;
20657;SDS011;10488;50.846;4.078;2023-11-21T07:11:54;38.75;;;19.95;;
20657;SDS011;10488;50.846;4.078;2023-11-21T07:14:20;34.70;;;19.02;;
20657;SDS011;10488;50.846;4.078;2023-11-21T07:16:46;34.20;;;19.23;;
20657;SDS011;10488;50.846;4.078;2023-11-21T07:19:12;41.92;;;21.05;;
20657;SDS011;10488;50.846;4.078;2023-11-21T07:21:38;33.15;;;19.10;;
20657;SDS011;10488;50.846;4.078;2023-11-21T07:24:05;34.95;;;19.08;;
20657;SDS011;10488;50.846;4.078;2023-11-21T07:26:32;41.97;;;21.05;;
20657;SDS011;10488;50.846;4.078;2023-11-21T07:28:59;44.60;;;20.50;;
20657;SDS011;10488;50.846;4.078;2023-11-21T07:31:25;37.80;;;19.42;;
20657;SDS011;10488;50.846;4.078;2023-11-21T07:33:51;36.75;;;19.55;;
20657;SDS011;10488;50.846;4.078;2023-11-21T07:36:18;36.45;;;21.35;;
20657;SDS011;10488;50.846;4.078;2023-11-21T07:38:45;36.83;;;19.92;;
20657;SDS011;10488;50.846;4.078;2023-11-21T07:41:11;32.63;;;19.27;;
20657;SDS011;10488;50.846;4.078;2023-11-21T07:43:40;35.00;;;18.88;;
20657;SDS011;10488;50.846;4.078;2023-11-21T07:46:10;99.03;;;28.50;;
20657;SDS011;10488;50.846;4.078;2023-11-21T07:48:37;92.90;;;26.52;;
20657;SDS011;10488;50.846;4.078;2023-11-21T07:51:04;40.97;;;23.05;;
20657;SDS011;10488;50.846;4.078;2023-11-21T07:53:30;169.55;;;35.45;;
20657;SDS011;10488;50.846;4.078;2023-11-21T07:56:02;62.78;;;26.00;;
20657;SDS011;10488;50.846;4.078;2023-11-21T07:58:29;83.88;;;29.05;;
20657;SDS011;10488;50.846;4.078;2023-11-21T08:00:56;101.75;;;31.42;;
20657;SDS011;10488;50.846;4.078;2023-11-21T08:03:21;78.95;;;29.17;;
20657;SDS011;10488;50.846;4.078;2023-11-21T08:05:47;106.22;;;31.52;;
20657;SDS011;10488;50.846;4.078;2023-11-21T08:08:12;305.60;;;50.90;;
20657;SDS011;10488;50.846;4.078;2023-11-21T08:10:38;156.50;;;36.22;;
20657;SDS011;10488;50.846;4.078;2023-11-21T08:13:04;173.23;;;36.22;;
20657;SDS011;10488;50.846;4.078;2023-11-21T08:15:30;81.68;;;28.92;;
20657;SDS011;10488;50.846;4.078;2023-11-21T08:17:59;70.80;;;29.25;;
20657;SDS011;10488;50.846;4.078;2023-11-21T08:20:24;63.92;;;27.42;;
20657;SDS011;10488;50.846;4.078;2023-11-21T08:22:50;75.75;;;27.02;;
20657;SDS011;10488;50.846;4.078;2023-11-21T08:25:17;217.30;;;40.53;;
20657;SDS011;10488;50.846;4.078;2023-11-21T08:27:45;76.95;;;27.55;;
20657;SDS011;10488;50.846;4.078;2023-11-21T08:30:11;147.93;;;35.88;;
20657;SDS011;10488;50.846;4.078;2023-11-21T08:32:39;83.60;;;27.20;;
20657;SDS011;10488;50.846;4.078;2023-11-21T08:35:07;54.28;;;24.30;;
20657;SDS011;10488;50.846;4.078;2023-11-21T08:37:33;58.38;;;24.70;;
20657;SDS011;10488;50.846;4.078;2023-11-21T08:40:02;57.30;;;25.85;;
20657;SDS011;10488;50.846;4.078;2023-11-21T08:42:41;116.95;;;29.30;;
20657;SDS011;10488;50.846;4.078;2023-11-21T08:45:08;96.97;;;26.00;;
20657;SDS011;10488;50.846;4.078;2023-11-21T08:47:34;53.65;;;22.27;;
20657;SDS011;10488;50.846;4.078;2023-11-21T08:50:01;52.70;;;23.92;;
20657;SDS011;10488;50.846;4.078;2023-11-21T08:52:27;60.10;;;24.48;;
20657;SDS011;10488;50.846;4.078;2023-11-21T08:54:53;155.63;;;34.30;;
20657;SDS011;10488;50.846;4.078;2023-11-21T08:57:22;73.53;;;26.02;;
20657;SDS011;10488;50.846;4.078;2023-11-21T08:59:48;91.13;;;26.23;;
20657;SDS011;10488;50.846;4.078;2023-11-21T09:02:14;66.60;;;23.88;;
20657;SDS011;10488;50.846;4.078;2023-11-21T09:04:40;88.60;;;26.65;;
20657;SDS011;10488;50.846;4.078;2023-11-21T09:07:06;51.67;;;23.23;;
20657;SDS011;10488;50.846;4.078;2023-11-21T09:09:31;112.00;;;28.02;;
20657;SDS011;10488;50.846;4.078;2023-11-21T09:11:57;138.27;;;31.88;;
20657;SDS011;10488;50.846;4.078;2023-11-21T09:14:25;98.82;;;26.33;;
20657;SDS011;10488;50.846;4.078;2023-11-21T09:16:51;64.15;;;24.40;;
20657;SDS011;10488;50.846;4.078;2023-11-21T09:19:16;55.88;;;22.90;;
20657;SDS011;10488;50.846;4.078;2023-11-21T09:21:42;106.05;;;28.50;;
20657;SDS011;10488;50.846;4.078;2023-11-21T09:24:08;55.30;;;22.75;;
20657;SDS011;10488;50.846;4.078;2023-11-21T09:26:34;115.72;;;27.90;;
20657;SDS011;10488;50.846;4.078;2023-11-21T09:28:59;48.35;;;21.63;;
20657;SDS011;10488;50.846;4.078;2023-11-21T09:31:27;52.60;;;21.75;;
20657;SDS011;10488;50.846;4.078;2023-11-21T09:33:53;70.43;;;23.83;;
20657;SDS011;10488;50.846;4.078;2023-11-21T09:36:19;49.80;;;22.58;;
20657;SDS011;10488;50.846;4.078;2023-11-21T09:38:48;51.10;;;20.92;;
20657;SDS011;10488;50.846;4.078;2023-11-21T09:41:32;43.08;;;20.73;;
20657;SDS011;10488;50.846;4.078;2023-11-21T09:44:05;47.67;;;20.75;;
20657;SDS011;10488;50.846;4.078;2023-11-21T09:46:36;42.20;;;20.13;;
20657;SDS011;10488;50.846;4.078;2023-11-21T09:49:05;45.40;;;19.95;;
20657;SDS011;10488;50.846;4.078;2023-11-21T09:51:36;44.25;;;19.77;;
20657;SDS011;10488;50.846;4.078;2023-11-21T09:54:05;43.03;;;20.23;;
20657;SDS011;10488;50.846;4.078;2023-11-21T09:56:34;42.35;;;20.05;;
20657;SDS011;10488;50.846;4.078;2023-11-21T09:59:01;36.15;;;16.70;;
20657;SDS011;10488;50.846;4.078;2023-11-21T10:01:31;36.80;;;19.60;;
20657;SDS011;10488;50.846;4.078;2023-11-21T10:03:58;42.50;;;17.35;;
20657;SDS011;10488;50.846;4.078;2023-11-21T10:06:24;33.67;;;16.70;;
20657;SDS011;10488;50.846;4.078;2023-11-21T10:08:52;31.85;;;16.63;;
20657;SDS011;10488;50.846;4.078;2023-11-21T10:11:24;31.80;;;16.67;;
20657;SDS011;10488;50.846;4.078;2023-11-21T10:13:55;32.83;;;15.98;;
20657;SDS011;10488;50.846;4.078;2023-11-21T10:16:25;30.02;;;15.88;;
20657;SDS011;10488;50.846;4.078;2023-11-21T10:18:52;28.63;;;14.50;;
20657;SDS011;10488;50.846;4.078;2023-11-21T10:21:21;21.77;;;13.52;;
20657;SDS011;10488;50.846;4.078;2023-11-21T10:23:47;26.15;;;13.90;;
20657;SDS011;10488;50.846;4.078;2023-11-21T10:26:13;29.67;;;15.73;;
20657;SDS011;10488;50.846;4.078;2023-11-21T10:28:41;30.95;;;15.90;;
20657;SDS011;10488;50.846;4.078;2023-11-21T10:31:20;29.08;;;14.65;;
20657;SDS011;10488;50.846;4.078;2023-11-21T10:33:46;48.92;;;17.38;;
20657;SDS011;10488;50.846;4.078;2023-11-21T10:36:12;50.53;;;16.95;;
20657;SDS011;10488;50.846;4.078;2023-11-21T10:38:42;24.02;;;15.27;;
20657;SDS011;10488;50.846;4.078;2023-11-21T10:41:10;28.00;;;15.90;;
20657;SDS011;10488;50.846;4.078;2023-11-21T10:43:40;24.45;;;15.27;;
20657;SDS011;10488;50.846;4.078;2023-11-21T10:46:07;25.98;;;14.35;;
20657;SDS011;10488;50.846;4.078;2023-11-21T10:48:34;28.30;;;15.73;;
20657;SDS011;10488;50.846;4.078;2023-11-21T10:51:01;39.10;;;16.23;;
20657;SDS011;10488;50.846;4.078;2023-11-21T10:53:38;32.45;;;16.70;;
20657;SDS011;10488;50.846;4.078;2023-11-21T10:56:08;29.92;;;15.90;;
20657;SDS011;10488;50.846;4.078;2023-11-21T10:58:42;28.73;;;16.75;;
20657;SDS011;10488;50.846;4.078;2023-11-21T11:01:08;25.65;;;15.20;;
20657;SDS011;10488;50.846;4.078;2023-11-21T11:03:37;21.45;;;14.50;;
20657;SDS011;10488;50.846;4.078;2023-11-21T11:06:04;24.33;;;14.93;;
20657;SDS011;10488;50.846;4.078;2023-11-21T11:08:32;26.15;;;14.20;;
20657;SDS011;10488;50.846;4.078;2023-11-21T11:10:59;24.17;;;14.13;;
20657;SDS011;10488;50.846;4.078;2023-11-21T11:13:25;28.10;;;15.05;;
20657;SDS011;10488;50.846;4.078;2023-11-21T11:15:51;33.65;;;14.90;;
20657;SDS011;10488;50.846;4.078;2023-11-21T11:18:24;21.17;;;13.68;;
20657;SDS011;10488;50.846;4.078;2023-11-21T11:20:50;17.77;;;12.13;;
20657;SDS011;10488;50.846;4.078;2023-11-21T11:29:06;19.33;;;9.48;;
20657;SDS011;10488;50.846;4.078;2023-11-21T11:34:31;10.80;;;7.68;;
20657;SDS011;10488;50.846;4.078;2023-11-21T11:37:03;12.85;;;7.60;;
20657;SDS011;10488;50.846;4.078;2023-11-21T11:39:40;14.90;;;7.07;;
20657;SDS011;10488;50.846;4.078;2023-11-21T11:42:14;13.02;;;6.88;;
20657;SDS011;10488;50.846;4.078;2023-11-21T11:47:26;7.10;;;4.95;;
20657;SDS011;10488;50.846;4.078;2023-11-21T11:50:03;17.55;;;8.00;;
20657;SDS011;10488;50.846;4.078;2023-11-21T11:55:09;9.02;;;4.57;;
20657;SDS011;10488;50.846;4.078;2023-11-21T11:57:36;6.47;;;3.33;;
20657;SDS011;10488;50.846;4.078;2023-11-21T12:00:10;9.73;;;4.80;;
20657;SDS011;10488;50.846;4.078;2023-11-21T12:02:41;7.78;;;3.63;;
20657;SDS011;10488;50.846;4.078;2023-11-21T12:05:11;7.20;;;3.25;;
20657;SDS011;10488;50.846;4.078;2023-11-21T12:07:45;8.60;;;3.08;;
20657;SDS011;10488;50.846;4.078;2023-11-21T12:10:12;6.25;;;3.00;;
20657;SDS011;10488;50.846;4.078;2023-11-21T12:12:46;4.93;;;3.53;;
20657;SDS011;10488;50.846;4.078;2023-11-21T12:15:14;5.40;;;2.40;;
20657;SDS011;10488;50.846;4.078;2023-11-21T12:17:41;5.35;;;2.40;;
20657;SDS011;10488;50.846;4.078;2023-11-21T12:20:08;10.90;;;2.90;;
20657;SDS011;10488;50.846;4.078;2023-11-21T12:22:48;12.68;;;2.92;;
20657;SDS011;10488;50.846;4.078;2023-11-21T12:25:19;11.52;;;5.72;;
20657;SDS011;10488;50.846;4.078;2023-11-21T12:27:47;12.75;;;8.00;;
20657;SDS011;10488;50.846;4.078;2023-11-21T12:30:20;5.15;;;2.75;;
20657;SDS011;10488;50.846;4.078;2023-11-21T12:32:51;8.13;;;2.97;;
20657;SDS011;10488;50.846;4.078;2023-11-21T12:35:27;10.07;;;2.78;;
20657;SDS011;10488;50.846;4.078;2023-11-21T12:37:55;8.90;;;3.65;;
20657;SDS011;10488;50.846;4.078;2023-11-21T12:40:23;5.18;;;3.08;;
20657;SDS011;10488;50.846;4.078;2023-11-21T12:42:54;11.50;;;4.00;;
20657;SDS011;10488;50.846;4.078;2023-11-21T12:45:24;10.52;;;3.47;;
20657;SDS011;10488;50.846;4.078;2023-11-21T12:47:55;8.80;;;3.33;;
20657;SDS011;10488;50.846;4.078;2023-11-21T12:50:25;15.02;;;3.08;;
20657;SDS011;10488;50.846;4.078;2023-11-21T12:53:09;12.93;;;4.40;;
20657;SDS011;10488;50.846;4.078;2023-11-21T12:55:42;4.95;;;3.47;;
20657;SDS011;10488;50.846;4.078;2023-11-21T12:58:15;22.90;;;13.35;;
20657;SDS011;10488;50.846;4.078;2023-11-21T13:00:44;5.72;;;3.22;;
20657;SDS011;10488;50.846;4.078;2023-11-21T13:03:12;7.55;;;2.85;;
20657;SDS011;10488;50.846;4.078;2023-11-21T13:05:44;6.30;;;3.20;;
20657;SDS011;10488;50.846;4.078;2023-11-21T13:08:13;5.70;;;2.92;;
20657;SDS011;10488;50.846;4.078;2023-11-21T13:10:43;7.28;;;3.42;;
20657;SDS011;10488;50.846;4.078;2023-11-21T13:13:12;5.60;;;2.50;;
20657;SDS011;10488;50.846;4.078;2023-11-21T13:15:49;6.97;;;4.07;;
20657;SDS011;10488;50.846;4.078;2023-11-21T13:18:16;9.02;;;4.72;;
20657;SDS011;10488;50.846;4.078;2023-11-21T13:20:42;5.57;;;3.28;;
20657;SDS011;10488;50.846;4.078;2023-11-21T13:23:08;5.32;;;3.75;;
20657;SDS011;10488;50.846;4.078;2023-11-21T13:25:39;8.88;;;4.57;;
20657;SDS011;10488;50.846;4.078;2023-11-21T13:28:07;7.63;;;4.97;;
20657;SDS011;10488;50.846;4.078;2023-11-21T13:30:37;9.82;;;5.60;;
20657;SDS011;10488;50.846;4.078;2023-11-21T13:33:05;7.20;;;5.00;;
20657;SDS011;10488;50.846;4.078;2023-11-21T13:35:36;9.95;;;5.30;;
20657;SDS011;10488;50.846;4.078;2023-11-21T13:38:07;14.40;;;6.72;;
20657;SDS011;10488;50.846;4.078;2023-11-21T13:40:34;72.70;;;13.50;;
20657;SDS011;10488;50.846;4.078;2023-11-21T13:43:14;7.93;;;5.60;;
20657;SDS011;10488;50.846;4.078;2023-11-21T13:45:42;13.05;;;6.47;;
20657;SDS011;10488;50.846;4.078;2023-11-21T13:48:10;9.75;;;5.28;;
20657;SDS011;10488;50.846;4.078;2023-11-21T13:50:39;17.38;;;12.48;;
20657;SDS011;10488;50.846;4.078;2023-11-21T13:53:13;8.95;;;5.55;;
20657;SDS011;10488;50.846;4.078;2023-11-21T13:55:48;10.63;;;5.55;;
20657;SDS011;10488;50.846;4.078;2023-11-21T13:58:15;10.02;;;6.55;;
20657;SDS011;10488;50.846;4.078;2023-11-21T14:00:48;19.60;;;14.18;;
20657;SDS011;10488;50.846;4.078;2023-11-21T14:03:22;11.48;;;7.38;;
20657;SDS011;10488;50.846;4.078;2023-11-21T14:05:57;11.15;;;5.85;;
20657;SDS011;10488;50.846;4.078;2023-11-21T14:08:25;16.73;;;8.07;;
20657;SDS011;10488;50.846;4.078;2023-11-21T14:10:54;10.52;;;5.93;;
20657;SDS011;10488;50.846;4.078;2023-11-21T14:13:24;11.73;;;7.40;;
20657;SDS011;10488;50.846;4.078;2023-11-21T14:15:51;12.18;;;7.20;;
20657;SDS011;10488;50.846;4.078;2023-11-21T14:18:25;10.85;;;7.05;;
20657;SDS011;10488;50.846;4.078;2023-11-21T14:20:56;8.27;;;6.40;;
20657;SDS011;10488;50.846;4.078;2023-11-21T14:23:22;10.68;;;6.97;;
20657;SDS011;10488;50.846;4.078;2023-11-21T14:25:48;11.90;;;6.53;;
20657;SDS011;10488;50.846;4.078;2023-11-21T14:28:17;9.45;;;6.40;;
20657;SDS011;10488;50.846;4.078;2023-11-21T14:30:44;10.35;;;7.25;;
20657;SDS011;10488;50.846;4.078;2023-11-21T14:33:11;7.88;;;6.97;;
20657;SDS011;10488;50.846;4.078;2023-11-21T14:35:37;15.95;;;6.78;;
20657;SDS011;10488;50.846;4.078;2023-11-21T14:38:02;13.65;;;6.63;;
20657;SDS011;10488;50.846;4.078;2023-11-21T14:40:32;11.02;;;7.07;;
20657;SDS011;10488;50.846;4.078;2023-11-21T14:43:00;10.63;;;4.88;;